Time;durP1;ratioP1;P1;durP2;ratioP2;P2;SDS_P1;SDS_P2;PMS_P1;PMS_P2;Temp;Humidity;BMP_temperature;BMP_pressure;BME280_temperature;BME280_humidity;BME280_pressure;Samples;Min_cycle;Max_cycle;Signal;HPM_P1;HPM_P2
2024/01/24 00:01:33;;;;;;;7.87;2.33;;;12.40;99.90;;;;;;5053663;28;20060;-51
2024/01/24 00:03:59;;;;;;;11.30;3.80;;;12.50;99.90;;;;;;5054946;28;20028;-55
2024/01/24 00:06:26;;;;;;;12.32;3.33;;;12.50;99.90;;;;;;5054951;28;20493;-51
2024/01/24 00:08:52;;;;;;;10.93;2.90;;;12.50;99.90;;;;;;5055901;28;20036;-55
2024/01/24 00:11:17;;;;;;;10.47;2.87;;;12.50;99.90;;;;;;5054735;28;20033;-54
2024/01/24 00:13:43;;;;;;;10.47;3.40;;;12.50;99.90;;;;;;5055076;28;20041;-52
2024/01/24 00:16:08;;;;;;;9.63;3.40;;;12.60;99.90;;;;;;5055013;28;20037;-55
2024/01/24 00:18:34;;;;;;;9.33;3.17;;;12.60;99.90;;;;;;5054585;28;20056;-56
2024/01/24 00:21:01;;;;;;;9.03;3.20;;;12.60;99.90;;;;;;5054524;28;20112;-56
2024/01/24 00:23:27;;;;;;;7.67;2.63;;;12.60;99.90;;;;;;5054353;28;20040;-56
2024/01/24 00:25:52;;;;;;;10.60;3.13;;;12.60;99.90;;;;;;5054290;28;20029;-54
2024/01/24 00:28:21;;;;;;;9.38;3.20;;;12.60;99.90;;;;;;5054301;28;20033;-55
2024/01/24 00:30:46;;;;;;;10.57;3.72;;;12.60;99.90;;;;;;5054465;28;20025;-55
2024/01/24 00:33:12;;;;;;;8.30;3.20;;;12.70;99.90;;;;;;5053964;28;20024;-55
2024/01/24 00:35:38;;;;;;;16.87;3.40;;;12.70;99.90;;;;;;5054424;28;20488;-54
2024/01/24 00:38:03;;;;;;;10.32;3.15;;;12.70;99.90;;;;;;5054318;28;20033;-56
2024/01/24 00:40:29;;;;;;;6.73;2.80;;;12.70;99.90;;;;;;5054296;28;20036;-56
2024/01/24 00:42:55;;;;;;;7.28;2.47;;;12.70;99.90;;;;;;5054053;28;20100;-55
2024/01/24 00:45:20;;;;;;;7.47;2.60;;;12.70;99.90;;;;;;5052845;28;20025;-55
2024/01/24 00:47:46;;;;;;;8.63;2.67;;;12.70;99.90;;;;;;5054054;28;20474;-54
2024/01/24 00:50:12;;;;;;;7.25;2.30;;;12.80;99.90;;;;;;5054119;28;20032;-55
2024/01/24 00:52:37;;;;;;;10.85;2.80;;;12.80;99.90;;;;;;5053820;28;20044;-55
2024/01/24 00:55:04;;;;;;;6.38;2.53;;;12.80;99.90;;;;;;5052962;28;20044;-52
2024/01/24 00:57:29;;;;;;;8.73;2.67;;;12.80;99.90;;;;;;5052580;28;20036;-56
2024/01/24 00:59:55;;;;;;;9.85;3.28;;;12.80;99.90;;;;;;5053793;28;20029;-56
2024/01/24 01:02:21;;;;;;;12.95;4.47;;;12.80;99.90;;;;;;5053688;28;20064;-56
2024/01/24 01:04:46;;;;;;;11.85;4.38;;;12.90;99.90;;;;;;5053784;28;20358;-56
2024/01/24 01:07:12;;;;;;;8.45;2.88;;;13.00;99.90;;;;;;5053958;28;20059;-51
2024/01/24 01:09:37;;;;;;;5.65;1.75;;;13.00;99.90;;;;;;5053737;28;20223;-55
2024/01/24 01:12:03;;;;;;;7.30;2.00;;;13.00;99.90;;;;;;5053470;28;20131;-56
2024/01/24 01:14:29;;;;;;;7.03;1.80;;;13.00;99.90;;;;;;5053604;28;20108;-55
2024/01/24 01:16:55;;;;;;;5.07;1.80;;;13.10;99.90;;;;;;5053483;28;20045;-52
2024/01/24 01:19:20;;;;;;;5.35;1.60;;;13.10;99.90;;;;;;5053499;28;20029;-55
2024/01/24 01:21:46;;;;;;;4.07;1.55;;;13.10;99.90;;;;;;5053333;28;20041;-54
2024/01/24 01:24:11;;;;;;;3.28;1.20;;;13.20;99.90;;;;;;5053292;28;20040;-55
2024/01/24 01:26:37;;;;;;;2.47;1.10;;;13.20;99.90;;;;;;5054017;28;20036;-55
2024/01/24 01:29:02;;;;;;;5.22;2.28;;;13.20;99.90;;;;;;5053240;28;20029;-53
2024/01/24 01:31:28;;;;;;;6.22;1.35;;;13.30;99.90;;;;;;5053108;28;20025;-56
2024/01/24 01:33:54;;;;;;;3.47;0.82;;;13.30;99.90;;;;;;5053210;28;20064;-54
2024/01/24 01:36:20;;;;;;;3.22;1.00;;;13.30;99.90;;;;;;5053406;28;20075;-52
2024/01/24 01:38:45;;;;;;;2.20;1.08;;;13.30;99.90;;;;;;5051656;28;20076;-56
2024/01/24 01:41:11;;;;;;;3.67;1.20;;;13.30;99.90;;;;;;5053002;28;20032;-53
2024/01/24 01:43:37;;;;;;;4.13;1.58;;;13.30;99.90;;;;;;5051591;28;20062;-54
2024/01/24 01:46:06;;;;;;;5.32;1.15;;;13.30;99.90;;;;;;5052857;28;20044;-55
2024/01/24 01:48:33;;;;;;;4.68;0.90;;;13.40;99.90;;;;;;5052967;28;20032;-52
2024/01/24 01:50:59;;;;;;;3.20;0.75;;;13.50;99.90;;;;;;5052937;28;20028;-56
2024/01/24 01:53:26;;;;;;;1.52;0.80;;;13.50;99.90;;;;;;5052630;28;20033;-55
2024/01/24 01:55:53;;;;;;;4.78;1.10;;;13.50;99.90;;;;;;5052846;28;20029;-53
2024/01/24 01:58:19;;;;;;;3.63;0.90;;;13.40;99.90;;;;;;5052733;28;20047;-56
2024/01/24 02:00:48;;;;;;;1.92;0.80;;;13.40;99.90;;;;;;5052676;28;20043;-55
2024/01/24 02:03:14;;;;;;;1.15;0.80;;;13.50;99.90;;;;;;5052493;28;20025;-54
2024/01/24 02:05:39;;;;;;;1.80;0.68;;;13.50;99.90;;;;;;5052546;28;20382;-54
2024/01/24 02:08:06;;;;;;;0.90;0.60;;;13.50;99.90;;;;;;5051055;28;20028;-55
2024/01/24 02:10:32;;;;;;;6.45;1.75;;;13.60;99.90;;;;;;5052573;28;20047;-55
2024/01/24 02:12:59;;;;;;;3.25;0.95;;;13.60;99.90;;;;;;5052327;28;20505;-55
2024/01/24 02:15:26;;;;;;;1.45;0.77;;;13.60;99.90;;;;;;5052605;28;20041;-55
2024/01/24 02:17:52;;;;;;;3.47;0.80;;;13.70;99.90;;;;;;5052416;28;20029;-56
2024/01/24 02:20:18;;;;;;;0.75;0.55;;;13.70;99.90;;;;;;5052376;28;20093;-53
2024/01/24 02:22:44;;;;;;;1.55;0.57;;;13.70;99.90;;;;;;5052167;28;20174;-55
2024/01/24 02:25:10;;;;;;;1.95;0.70;;;13.70;99.90;;;;;;5052069;28;20081;-53
2024/01/24 02:27:35;;;;;;;2.33;0.45;;;13.80;99.90;;;;;;5050911;28;20036;-54
2024/01/24 02:30:01;;;;;;;1.02;0.70;;;13.80;99.90;;;;;;5052117;28;20033;-55
2024/01/24 02:32:26;;;;;;;1.58;0.52;;;13.80;99.90;;;;;;5052166;28;20106;-56
2024/01/24 02:34:52;;;;;;;0.80;0.50;;;13.80;99.90;;;;;;5052286;28;20021;-55
2024/01/24 02:37:20;;;;;;;1.02;0.55;;;13.80;99.90;;;;;;5052140;28;20389;-53
2024/01/24 02:39:47;;;;;;;1.75;0.68;;;13.80;99.90;;;;;;5052070;28;20196;-55
2024/01/24 02:42:13;;;;;;;1.45;0.70;;;13.80;99.90;;;;;;5052141;28;20056;-52
2024/01/24 02:44:39;;;;;;;2.28;0.70;;;13.80;99.90;;;;;;5052107;28;20039;-55
2024/01/24 02:47:04;;;;;;;1.88;0.70;;;13.70;99.90;;;;;;5051951;28;20037;-54
2024/01/24 02:49:30;;;;;;;1.85;0.50;;;13.70;99.90;;;;;;5051992;28;20379;-53
2024/01/24 02:52:01;;;;;;;1.52;0.80;;;13.70;99.90;;;;;;5051767;28;20047;-52
2024/01/24 02:54:26;;;;;;;3.72;0.60;;;13.60;99.90;;;;;;5051942;28;20497;-56
2024/01/24 02:56:52;;;;;;;0.75;0.50;;;13.60;99.90;;;;;;5052120;28;20037;-56
2024/01/24 02:59:18;;;;;;;3.42;0.50;;;13.60;99.90;;;;;;5051806;28;20385;-56
2024/01/24 03:01:43;;;;;;;1.55;0.60;;;13.60;99.90;;;;;;5051854;28;20029;-52
2024/01/24 03:04:09;;;;;;;2.42;0.50;;;13.60;99.90;;;;;;5051881;28;20644;-55
2024/01/24 03:06:34;;;;;;;1.27;0.50;;;13.60;99.90;;;;;;5051699;28;20045;-56
2024/01/24 03:09:00;;;;;;;1.23;0.57;;;13.50;99.90;;;;;;5051832;28;20117;-56
2024/01/24 03:11:26;;;;;;;0.70;0.63;;;13.50;99.90;;;;;;5051794;28;20040;-54
2024/01/24 03:13:51;;;;;;;1.58;0.73;;;13.50;99.90;;;;;;5051784;28;20106;-55
2024/01/24 03:16:17;;;;;;;1.02;0.63;;;13.50;99.90;;;;;;5051958;28;20025;-56
2024/01/24 03:18:43;;;;;;;0.82;0.50;;;13.40;99.90;;;;;;5053292;28;20041;-56
2024/01/24 03:21:14;;;;;;;1.10;0.50;;;13.40;99.90;;;;;;5055603;28;20037;-54
2024/01/24 03:23:40;;;;;;;0.47;0.40;;;13.40;99.90;;;;;;5055664;28;20104;-56
2024/01/24 03:26:06;;;;;;;0.93;0.40;;;13.40;99.90;;;;;;5055568;28;20131;-56
2024/01/24 03:28:33;;;;;;;3.45;0.70;;;13.30;99.90;;;;;;5055627;28;20041;-55
2024/01/24 03:30:59;;;;;;;1.52;0.70;;;13.30;99.90;;;;;;5053788;28;20052;-53
2024/01/24 03:33:25;;;;;;;1.15;0.40;;;13.30;99.90;;;;;;5054079;28;20035;-55
2024/01/24 03:35:51;;;;;;;0.40;0.38;;;13.20;99.90;;;;;;5055511;28;20474;-56
2024/01/24 03:38:16;;;;;;;4.28;0.60;;;13.30;99.90;;;;;;5055096;28;20082;-54
2024/01/24 03:40:42;;;;;;;1.05;0.40;;;13.20;99.90;;;;;;5054583;28;20033;-55
2024/01/24 03:43:10;;;;;;;0.90;0.40;;;13.20;99.90;;;;;;5055095;28;20047;-54
2024/01/24 03:45:36;;;;;;;1.90;0.40;;;13.20;99.90;;;;;;5055468;28;20087;-55
2024/01/24 03:48:03;;;;;;;0.60;0.40;;;13.20;99.90;;;;;;5055349;28;20033;-56
2024/01/24 03:50:29;;;;;;;1.23;0.40;;;13.10;99.90;;;;;;5055215;28;20033;-56
2024/01/24 03:52:54;;;;;;;0.98;0.50;;;13.00;99.90;;;;;;5055062;28;20048;-55
2024/01/24 03:55:20;;;;;;;0.40;0.40;;;12.90;99.90;;;;;;5055153;28;20470;-53
2024/01/24 03:57:45;;;;;;;0.90;0.45;;;12.80;99.90;;;;;;5055154;28;20100;-56
2024/01/24 04:00:12;;;;;;;0.35;0.30;;;12.80;99.90;;;;;;5054955;28;20116;-55
2024/01/24 04:02:40;;;;;;;0.57;0.30;;;12.80;99.90;;;;;;5054759;28;20036;-55
2024/01/24 04:05:06;;;;;;;0.82;0.35;;;12.70;99.90;;;;;;5053565;28;20036;-53
2024/01/24 04:07:32;;;;;;;1.42;0.55;;;12.70;99.90;;;;;;5055206;28;20024;-55
2024/01/24 04:09:58;;;;;;;0.70;0.30;;;12.70;99.90;;;;;;5054832;28;20401;-54
2024/01/24 04:12:24;;;;;;;0.73;0.28;;;12.60;99.90;;;;;;5054647;28;20029;-56
2024/01/24 04:14:50;;;;;;;0.32;0.30;;;12.60;99.90;;;;;;5054852;28;20540;-54
2024/01/24 04:17:15;;;;;;;0.35;0.20;;;12.60;99.90;;;;;;5054822;28;20120;-55
2024/01/24 04:19:41;;;;;;;0.30;0.30;;;12.60;99.90;;;;;;5054558;28;20140;-54
2024/01/24 04:22:07;;;;;;;0.45;0.30;;;12.70;99.90;;;;;;5054568;28;20020;-54
2024/01/24 04:24:33;;;;;;;0.30;0.20;;;12.70;99.90;;;;;;5054470;28;20041;-55
2024/01/24 04:26:58;;;;;;;0.70;0.35;;;12.70;99.90;;;;;;5054459;28;20043;-56
2024/01/24 04:29:24;;;;;;;0.35;0.25;;;12.70;99.90;;;;;;5053440;28;20040;-56
2024/01/24 04:31:49;;;;;;;0.32;0.10;;;12.70;99.90;;;;;;5053576;28;20036;-56
2024/01/24 04:34:17;;;;;;;0.17;0.17;;;12.70;99.90;;;;;;5054055;28;20029;-54
2024/01/24 04:36:43;;;;;;;0.75;0.20;;;12.80;99.90;;;;;;5054170;28;20039;-56
2024/01/24 04:39:12;;;;;;;0.65;0.20;;;12.80;99.90;;;;;;5053962;28;20037;-55
2024/01/24 04:41:38;;;;;;;0.20;0.20;;;12.80;99.90;;;;;;5053959;28;20029;-55
2024/01/24 04:44:04;;;;;;;2.22;0.40;;;12.80;99.90;;;;;;5053793;28;20482;-55
2024/01/24 04:46:30;;;;;;;0.50;0.30;;;12.90;99.90;;;;;;5053763;28;20114;-53
2024/01/24 04:48:55;;;;;;;1.33;0.30;;;12.90;99.90;;;;;;5053791;28;20075;-55
2024/01/24 04:51:22;;;;;;;1.63;0.30;;;12.80;99.90;;;;;;5053763;28;20028;-55
2024/01/24 04:53:48;;;;;;;2.75;0.20;;;12.90;99.90;;;;;;5053695;28;20029;-55
2024/01/24 04:56:14;;;;;;;0.30;0.25;;;12.90;99.90;;;;;;5053796;28;20033;-56
2024/01/24 04:58:42;;;;;;;0.77;0.30;;;13.00;99.90;;;;;;5053583;28;20082;-56
2024/01/24 05:01:08;;;;;;;3.15;0.40;;;13.00;99.90;;;;;;5053518;28;20025;-53
2024/01/24 05:03:34;;;;;;;1.75;0.20;;;13.00;99.90;;;;;;5053800;28;20040;-55
2024/01/24 05:06:00;;;;;;;0.40;0.20;;;13.10;99.90;;;;;;5053470;28;20469;-56
2024/01/24 05:08:25;;;;;;;0.50;0.30;;;13.10;99.90;;;;;;5053410;28;20035;-54
2024/01/24 05:10:51;;;;;;;2.38;0.40;;;13.00;99.90;;;;;;5053485;28;20025;-55
2024/01/24 05:13:17;;;;;;;1.33;0.30;;;13.00;99.90;;;;;;5053151;28;20021;-53
2024/01/24 05:15:43;;;;;;;5.07;0.50;;;12.90;99.90;;;;;;5052157;28;20033;-52
2024/01/24 05:18:09;;;;;;;2.13;0.55;;;12.90;99.90;;;;;;5053450;28;20551;-52
2024/01/24 05:20:35;;;;;;;6.40;0.63;;;12.90;99.90;;;;;;5053117;28;20496;-56
2024/01/24 05:23:03;;;;;;;2.90;0.50;;;12.90;99.90;;;;;;5052989;28;20116;-55
2024/01/24 05:25:29;;;;;;;3.28;0.95;;;12.80;99.90;;;;;;5053988;28;20513;-55
2024/01/24 05:27:55;;;;;;;2.63;0.50;;;12.70;99.90;;;;;;5047025;28;20511;-52
2024/01/24 05:30:21;;;;;;;5.25;0.70;;;12.70;99.90;;;;;;5053010;28;20064;-55
2024/01/24 05:32:46;;;;;;;9.52;1.40;;;12.70;99.90;;;;;;5065855;28;20031;-52
2024/01/24 05:35:12;;;;;;;8.75;1.25;;;12.70;99.90;;;;;;5059976;28;20112;-53
2024/01/24 05:37:38;;;;;;;4.68;0.90;;;12.60;99.90;;;;;;5071274;28;20546;-55
2024/01/24 05:40:04;;;;;;;7.05;1.25;;;12.60;99.90;;;;;;5063542;28;20482;-52
2024/01/24 05:42:30;;;;;;;5.55;0.82;;;12.60;99.90;;;;;;5069932;28;20499;-52
2024/01/24 05:44:55;;;;;;;6.15;1.17;;;12.60;99.90;;;;;;5063051;28;20032;-56
2024/01/24 05:47:21;;;;;;;7.05;1.13;;;12.60;99.90;;;;;;5062711;28;20503;-56
2024/01/24 05:49:47;;;;;;;8.07;1.60;;;12.60;99.90;;;;;;5071295;28;20024;-56
2024/01/24 05:52:13;;;;;;;5.85;1.08;;;12.60;99.90;;;;;;5062545;28;20043;-55
2024/01/24 05:54:40;;;;;;;9.23;1.33;;;12.70;99.90;;;;;;5071122;28;20025;-56
2024/01/24 05:57:06;;;;;;;4.43;1.10;;;12.60;99.90;;;;;;5070817;28;20084;-56
2024/01/24 05:59:32;;;;;;;7.25;1.88;;;12.70;99.90;;;;;;5070761;28;20097;-56
2024/01/24 06:01:57;;;;;;;7.05;1.38;;;12.70;99.90;;;;;;5066369;28;20477;-54
2024/01/24 06:04:23;;;;;;;9.65;1.45;;;12.70;99.90;;;;;;5070799;28;20148;-55
2024/01/24 06:06:49;;;;;;;7.10;1.42;;;12.70;99.90;;;;;;5070472;28;20036;-56
2024/01/24 06:09:18;;;;;;;7.72;1.95;;;12.70;99.90;;;;;;5060082;28;20037;-55
2024/01/24 06:11:45;;;;;;;6.97;1.25;;;12.70;99.90;;;;;;5053526;28;20028;-55
2024/01/24 06:14:10;;;;;;;6.10;1.27;;;12.70;99.90;;;;;;5054934;28;20052;-56
2024/01/24 06:16:36;;;;;;;5.80;1.92;;;12.70;99.90;;;;;;5058549;28;20079;-54
2024/01/24 06:19:01;;;;;;;5.03;0.95;;;12.60;99.90;;;;;;5057260;28;20031;-56
2024/01/24 06:21:27;;;;;;;10.10;1.20;;;12.60;99.90;;;;;;5053337;28;20033;-56
2024/01/24 06:23:52;;;;;;;8.07;1.45;;;12.60;99.90;;;;;;5053371;28;20115;-56
2024/01/24 06:26:18;;;;;;;7.40;1.45;;;12.70;99.90;;;;;;5058199;28;20029;-55
2024/01/24 06:28:43;;;;;;;7.45;2.08;;;12.70;99.90;;;;;;5060270;28;20348;-56
2024/01/24 06:31:09;;;;;;;9.35;1.67;;;12.70;99.90;;;;;;5063764;28;20434;-55
2024/01/24 06:33:35;;;;;;;6.97;1.20;;;12.70;99.90;;;;;;5053847;28;20029;-54
2024/01/24 06:36:00;;;;;;;8.80;1.52;;;12.70;99.90;;;;;;5058638;28;20038;-56
2024/01/24 06:38:26;;;;;;;8.07;1.60;;;12.70;99.90;;;;;;5053039;28;20465;-55
2024/01/24 06:40:51;;;;;;;6.93;1.37;;;12.60;99.90;;;;;;5047187;28;20028;-56
2024/01/24 06:43:18;;;;;;;11.70;1.60;;;12.50;99.90;;;;;;5045955;28;20098;-56
2024/01/24 06:45:45;;;;;;;10.82;1.52;;;12.50;99.90;;;;;;5051688;28;20385;-56
2024/01/24 06:48:10;;;;;;;9.90;1.45;;;12.40;99.90;;;;;;5049536;28;20037;-56
2024/01/24 06:50:36;;;;;;;9.15;1.98;;;12.40;99.90;;;;;;5056833;28;20027;-56
2024/01/24 06:53:02;;;;;;;7.80;1.45;;;12.40;99.90;;;;;;5056215;28;20021;-55
2024/01/24 06:55:27;;;;;;;10.80;1.50;;;12.30;99.90;;;;;;5059600;28;20040;-55
2024/01/24 06:57:53;;;;;;;8.82;1.73;;;12.30;99.90;;;;;;5048500;28;20147;-53
2024/01/24 07:00:19;;;;;;;12.60;2.00;;;12.40;99.90;;;;;;5048374;28;20025;-58
2024/01/24 07:02:45;;;;;;;11.40;1.88;;;12.50;99.90;;;;;;5048183;28;20493;-55
2024/01/24 07:05:10;;;;;;;10.30;1.63;;;12.50;99.90;;;;;;5045708;28;20025;-54
2024/01/24 07:07:37;;;;;;;7.50;1.40;;;12.50;99.90;;;;;;5048694;28;20392;-54
2024/01/24 07:10:03;;;;;;;10.57;1.58;;;12.40;99.90;;;;;;5050898;28;20013;-54
2024/01/24 07:12:28;;;;;;;15.68;1.83;;;12.50;99.90;;;;;;5046399;28;20520;-54
2024/01/24 07:14:54;;;;;;;14.30;1.80;;;12.50;99.90;;;;;;5046598;28;20057;-55
2024/01/24 07:17:20;;;;;;;11.20;2.03;;;12.40;99.90;;;;;;5048334;28;20086;-54
2024/01/24 07:19:46;;;;;;;10.73;1.67;;;12.40;99.90;;;;;;5048084;28;20032;-55
2024/01/24 07:22:12;;;;;;;9.15;1.70;;;12.40;99.90;;;;;;5045378;28;20029;-54
2024/01/24 07:24:37;;;;;;;8.63;1.40;;;12.40;99.90;;;;;;5048177;28;20473;-55
2024/01/24 07:27:03;;;;;;;11.43;1.80;;;12.40;99.90;;;;;;5047168;28;20123;-55
2024/01/24 07:29:29;;;;;;;13.97;2.03;;;12.40;99.90;;;;;;5046616;28;20021;-56
2024/01/24 07:31:54;;;;;;;14.23;2.50;;;12.30;99.90;;;;;;5046288;28;20075;-54
2024/01/24 07:34:20;;;;;;;13.97;2.23;;;12.30;99.90;;;;;;5047762;28;20116;-56
2024/01/24 07:36:45;;;;;;;15.90;2.17;;;12.20;99.90;;;;;;5046749;28;20033;-51
2024/01/24 07:39:11;;;;;;;10.18;1.90;;;12.20;99.90;;;;;;5046367;28;20067;-56
2024/01/24 07:41:36;;;;;;;12.18;1.80;;;12.20;99.90;;;;;;5045368;28;20036;-54
2024/01/24 07:44:02;;;;;;;16.05;2.45;;;12.20;99.90;;;;;;5046709;28;20449;-54
2024/01/24 07:46:29;;;;;;;17.70;2.55;;;12.10;99.90;;;;;;5043380;28;20117;-52
2024/01/24 07:48:55;;;;;;;12.90;2.42;;;12.20;99.90;;;;;;5049444;28;20047;-54
2024/01/24 07:51:20;;;;;;;15.90;2.83;;;12.10;99.90;;;;;;5048715;28;20462;-56
2024/01/24 07:53:47;;;;;;;14.02;2.38;;;12.00;99.90;;;;;;5046379;28;20028;-52
2024/01/24 07:56:13;;;;;;;17.38;2.63;;;12.00;99.90;;;;;;5047804;28;20052;-54
2024/01/24 07:58:40;;;;;;;13.65;2.22;;;12.00;99.90;;;;;;5047890;28;20390;-52
2024/01/24 08:01:08;;;;;;;18.58;2.88;;;12.00;99.90;;;;;;5046331;28;20540;-55
2024/01/24 08:03:34;;;;;;;13.60;3.47;;;12.00;99.90;;;;;;5048015;28;20463;-55
2024/01/24 08:05:59;;;;;;;16.83;2.60;;;12.10;99.90;;;;;;5050818;28;20029;-55
2024/01/24 08:08:26;;;;;;;16.15;3.22;;;12.10;99.90;;;;;;5049237;28;20025;-55
2024/01/24 08:10:52;;;;;;;20.10;2.88;;;12.10;99.90;;;;;;5053379;28;20029;-52
2024/01/24 08:13:18;;;;;;;21.93;2.90;;;12.10;99.90;;;;;;5050128;28;20090;-55
2024/01/24 08:15:43;;;;;;;13.15;2.72;;;12.10;99.90;;;;;;5049094;28;20426;-55
2024/01/24 08:18:09;;;;;;;12.33;2.73;;;12.10;99.90;;;;;;5052080;28;20033;-53
2024/01/24 08:20:34;;;;;;;14.88;1.83;;;12.10;99.90;;;;;;5049720;28;20037;-55
2024/01/24 08:23:00;;;;;;;17.70;2.63;;;12.10;99.90;;;;;;5047031;28;20140;-54
2024/01/24 08:25:26;;;;;;;15.37;2.10;;;12.10;99.90;;;;;;5050424;28;20037;-53
2024/01/24 08:27:53;;;;;;;20.30;2.70;;;12.10;99.90;;;;;;5050106;28;20326;-55
2024/01/24 08:30:19;;;;;;;21.53;2.93;;;12.10;99.90;;;;;;5052897;28;20381;-54
2024/01/24 08:32:45;;;;;;;13.40;2.43;;;12.10;99.90;;;;;;5052709;28;20143;-55
2024/01/24 08:35:10;;;;;;;13.63;2.37;;;12.10;99.90;;;;;;5048970;28;20112;-56
2024/01/24 08:37:37;;;;;;;10.87;2.23;;;12.10;99.90;;;;;;5050130;28;20048;-54
2024/01/24 08:40:02;;;;;;;9.13;1.60;;;12.10;99.90;;;;;;5050820;28;20028;-55
2024/01/24 08:42:29;;;;;;;13.40;2.77;;;12.20;99.90;;;;;;5048556;28;20486;-55
2024/01/24 08:44:54;;;;;;;13.27;2.47;;;12.20;99.90;;;;;;5051920;28;20035;-55
2024/01/24 08:47:20;;;;;;;22.37;2.73;;;12.30;99.90;;;;;;5050695;28;20051;-55
2024/01/24 08:49:46;;;;;;;15.68;3.05;;;12.40;99.90;;;;;;5047834;28;20028;-55
2024/01/24 08:52:11;;;;;;;10.38;1.80;;;12.40;99.90;;;;;;5052079;28;20032;-55
2024/01/24 08:54:37;;;;;;;12.07;2.60;;;12.50;99.90;;;;;;5051017;28;20055;-54
2024/01/24 08:57:03;;;;;;;17.20;2.75;;;12.50;99.90;;;;;;5047955;28;20397;-55
2024/01/24 08:59:28;;;;;;;14.10;2.05;;;12.40;99.90;;;;;;5048349;28;20035;-54
2024/01/24 09:01:55;;;;;;;17.97;2.13;;;12.40;99.90;;;;;;5048966;28;20029;-52
2024/01/24 09:04:21;;;;;;;13.23;2.13;;;12.30;99.90;;;;;;5052331;28;20037;-54
2024/01/24 09:06:47;;;;;;;16.40;3.53;;;12.20;99.90;;;;;;5049235;28;20373;-51
2024/01/24 09:09:15;;;;;;;17.53;2.43;;;12.10;99.90;;;;;;5048924;28;20037;-52
2024/01/24 09:11:41;;;;;;;12.48;2.97;;;12.10;99.90;;;;;;5049878;28;20037;-55
2024/01/24 09:14:07;;;;;;;11.40;2.40;;;12.20;99.90;;;;;;5049118;28;20028;-54
2024/01/24 09:16:32;;;;;;;16.73;3.63;;;12.20;99.90;;;;;;5048521;28;20032;-51
2024/01/24 09:18:58;;;;;;;12.43;2.23;;;12.10;99.90;;;;;;5052192;28;20132;-55
2024/01/24 09:21:23;;;;;;;17.90;2.60;;;12.10;99.90;;;;;;5050525;28;20462;-51
2024/01/24 09:23:50;;;;;;;13.23;2.13;;;12.10;99.90;;;;;;5050362;28;20040;-53
2024/01/24 09:26:16;;;;;;;17.60;2.90;;;12.10;99.90;;;;;;5053527;28;20055;-52
2024/01/24 09:28:42;;;;;;;12.30;2.60;;;12.10;99.90;;;;;;5047844;28;20437;-53
2024/01/24 09:31:08;;;;;;;19.70;3.63;;;12.00;99.90;;;;;;5047521;28;20040;-55
2024/01/24 09:33:33;;;;;;;16.85;2.70;;;12.00;99.90;;;;;;5050157;28;20056;-54
2024/01/24 09:35:59;;;;;;;16.70;2.50;;;12.10;99.90;;;;;;5048118;28;20053;-54
2024/01/24 09:38:25;;;;;;;15.88;3.33;;;12.10;99.90;;;;;;5048927;28;20041;-54
2024/01/24 09:40:52;;;;;;;19.93;2.67;;;12.10;99.90;;;;;;5050925;28;20048;-56
2024/01/24 09:43:21;;;;;;;19.77;3.17;;;12.20;99.90;;;;;;5048948;28;20033;-52
2024/01/24 09:45:49;;;;;;;8.77;2.08;;;12.30;99.90;;;;;;5050890;28;20037;-55
2024/01/24 09:48:16;;;;;;;17.73;2.40;;;12.50;99.90;;;;;;5030734;28;20052;-55
2024/01/24 09:50:43;;;;;;;12.13;2.28;;;12.60;99.90;;;;;;5049631;28;20129;-53
2024/01/24 09:53:14;;;;;;;14.38;2.80;;;12.60;99.90;;;;;;5047328;28;20039;-54
2024/01/24 09:55:41;;;;;;;14.73;2.65;;;12.50;99.90;;;;;;5069193;28;20033;-55
2024/01/24 09:58:06;;;;;;;19.65;2.88;;;12.40;99.90;;;;;;5070879;28;20051;-53
2024/01/24 10:00:32;;;;;;;17.27;2.40;;;12.30;99.90;;;;;;5070995;28;20025;-55
2024/01/24 10:02:58;;;;;;;18.10;2.67;;;12.20;99.90;;;;;;5070593;28;20385;-54
2024/01/24 10:05:25;;;;;;;22.45;2.78;;;12.20;99.90;;;;;;5070729;28;20076;-55
2024/01/24 10:07:52;;;;;;;11.57;2.83;;;12.10;99.90;;;;;;5069456;28;20036;-55
2024/01/24 10:10:17;;;;;;;19.97;2.90;;;12.10;99.90;;;;;;5070838;28;20422;-56
2024/01/24 10:12:43;;;;;;;19.20;3.40;;;12.10;99.90;;;;;;5062196;28;20051;-56
2024/01/24 10:15:10;;;;;;;16.13;2.67;;;12.00;99.90;;;;;;5055906;28;20505;-55
2024/01/24 10:17:40;;;;;;;22.13;2.97;;;12.00;99.90;;;;;;5067558;28;20539;-55
2024/01/24 10:20:08;;;;;;;18.55;2.85;;;12.00;99.90;;;;;;5049801;28;20185;-54
2024/01/24 10:22:34;;;;;;;19.40;2.33;;;12.00;99.90;;;;;;5046042;28;20522;-56
2024/01/24 10:25:00;;;;;;;17.53;3.33;;;12.10;99.90;;;;;;5051830;28;20086;-55
2024/01/24 10:27:26;;;;;;;14.67;2.30;;;12.10;99.90;;;;;;5048508;28;20128;-54
2024/01/24 10:29:52;;;;;;;19.47;3.23;;;12.10;99.90;;;;;;5049330;28;20091;-58
2024/01/24 10:32:17;;;;;;;14.07;2.20;;;12.00;99.90;;;;;;5049021;28;20037;-56
2024/01/24 10:34:43;;;;;;;20.73;3.03;;;12.00;99.90;;;;;;5048947;28;20458;-53
2024/01/24 10:37:09;;;;;;;23.13;2.77;;;12.00;99.90;;;;;;5055358;28;20093;-56
2024/01/24 10:39:36;;;;;;;16.43;2.67;;;12.00;99.90;;;;;;5070459;28;20093;-54
2024/01/24 10:42:06;;;;;;;26.60;3.90;;;12.00;99.90;;;;;;5070211;28;20526;-56
2024/01/24 10:44:35;;;;;;;19.52;2.53;;;12.00;99.90;;;;;;5069485;28;20217;-56
2024/01/24 10:47:01;;;;;;;19.10;3.03;;;12.00;99.90;;;;;;5069880;28;20035;-56
2024/01/24 10:49:29;;;;;;;17.67;3.93;;;12.10;99.90;;;;;;5070334;28;20126;-53
2024/01/24 10:51:55;;;;;;;23.73;2.80;;;12.10;99.90;;;;;;5067066;28;20080;-55
2024/01/24 10:54:21;;;;;;;12.20;2.60;;;12.20;99.90;;;;;;5056657;28;20203;-55
2024/01/24 10:56:49;;;;;;;18.73;2.60;;;12.20;99.90;;;;;;5070094;28;20043;-57
2024/01/24 10:59:16;;;;;;;18.57;2.73;;;12.30;99.90;;;;;;5070435;28;20365;-56
2024/01/24 11:01:42;;;;;;;15.03;2.90;;;12.30;99.90;;;;;;5068797;28;20036;-55
2024/01/24 11:04:08;;;;;;;16.50;2.90;;;12.40;99.90;;;;;;5054569;28;20028;-55
2024/01/24 11:06:38;;;;;;;18.15;3.80;;;12.30;99.90;;;;;;5053659;28;20057;-56
2024/01/24 11:09:23;;;;;;;14.43;2.17;;;12.30;99.90;;;;;;5062646;28;20504;-56
2024/01/24 11:11:52;;;;;;;16.97;3.27;;;12.30;99.90;;;;;;5069688;28;20383;-55
2024/01/24 11:14:33;;;;;;;15.45;3.38;;;12.30;99.90;;;;;;5070016;28;20055;-56
2024/01/24 11:16:59;;;;;;;20.63;4.72;;;12.30;99.90;;;;;;5069893;28;20381;-57
2024/01/24 11:19:27;;;;;;;16.30;2.95;;;12.30;99.90;;;;;;5069992;28;20032;-55
2024/01/24 11:21:56;;;;;;;21.67;3.40;;;12.20;99.90;;;;;;5069390;28;20044;-56
2024/01/24 11:24:40;;;;;;;14.23;2.30;;;12.20;99.90;;;;;;5068179;28;20041;-56
2024/01/24 11:27:26;;;;;;;14.90;2.50;;;12.20;99.90;;;;;;5054295;28;20469;-54
2024/01/24 11:29:53;;;;;;;14.47;2.43;;;12.10;99.90;;;;;;5069763;28;20036;-57
2024/01/24 11:32:57;;;;;;;15.37;2.57;;;12.10;99.90;;;;;;5068237;28;20033;-57
2024/01/24 11:35:41;;;;;;;13.10;2.40;;;12.20;99.90;;;;;;5020647;28;20385;-56
2024/01/24 11:38:32;;;;;;;14.53;2.87;;;12.20;99.90;;;;;;5066139;28;20033;-51
2024/01/24 11:41:03;;;;;;;15.05;2.10;;;12.30;99.90;;;;;;5073209;28;20068;-50
2024/01/24 11:43:33;;;;;;;20.48;3.15;;;12.40;99.90;;;;;;5073017;28;20206;-50
2024/01/24 11:46:06;;;;;;;11.30;1.85;;;12.50;99.90;;;;;;5073466;28;20120;-54
2024/01/24 11:48:35;;;;;;;17.63;2.73;;;12.40;99.90;;;;;;5057675;28;20048;-55
2024/01/24 11:51:05;;;;;;;18.40;3.47;;;12.30;99.90;;;;;;5073266;28;20022;-55
2024/01/24 11:53:31;;;;;;;13.73;2.00;;;12.30;99.90;;;;;;5072965;28;20043;-54
2024/01/24 11:56:04;;;;;;;13.00;2.05;;;12.20;99.90;;;;;;5056148;28;20033;-57
2024/01/24 11:58:31;;;;;;;15.63;2.47;;;12.20;99.90;;;;;;5073322;28;20039;-56
2024/01/24 12:01:00;;;;;;;11.63;2.50;;;12.20;99.90;;;;;;5071819;28;20481;-55
2024/01/24 12:03:26;;;;;;;11.27;2.10;;;12.20;99.90;;;;;;5072873;28;20033;-56
2024/01/24 12:05:52;;;;;;;17.20;3.27;;;12.20;99.90;;;;;;5059554;28;20512;-56
2024/01/24 12:08:19;;;;;;;17.70;2.47;;;12.20;99.90;;;;;;5051617;28;20037;-57
2024/01/24 12:10:45;;;;;;;16.93;2.70;;;12.20;99.90;;;;;;5052615;28;20025;-55
2024/01/24 12:13:12;;;;;;;16.70;2.70;;;12.20;99.90;;;;;;5050030;28;20385;-56
2024/01/24 12:15:38;;;;;;;13.70;2.50;;;12.30;99.90;;;;;;5051766;28;20059;-57
2024/01/24 12:18:05;;;;;;;16.10;2.70;;;12.30;99.90;;;;;;5049169;28;20048;-54
2024/01/24 12:20:34;;;;;;;14.10;2.20;;;12.20;99.90;;;;;;5049949;28;20037;-55
2024/01/24 12:23:01;;;;;;;14.60;2.78;;;12.20;99.90;;;;;;5048850;28;20163;-56
2024/01/24 12:25:27;;;;;;;11.87;2.10;;;12.20;99.90;;;;;;5050892;28;20043;-55
2024/01/24 12:27:53;;;;;;;13.00;2.75;;;12.20;99.90;;;;;;5050214;28;20083;-53
2024/01/24 12:30:20;;;;;;;17.20;2.70;;;12.20;99.90;;;;;;5051723;28;20029;-53
2024/01/24 12:32:46;;;;;;;18.67;2.33;;;12.10;99.90;;;;;;5052758;28;20708;-52
2024/01/24 12:35:13;;;;;;;10.93;1.97;;;12.10;99.90;;;;;;5047962;28;20021;-54
2024/01/24 12:37:43;;;;;;;17.90;2.97;;;12.00;99.90;;;;;;5047718;28;20151;-52
2024/01/24 12:40:11;;;;;;;12.20;2.37;;;12.00;99.90;;;;;;5051195;28;20090;-56